Doorn, Netherlands
Current Conditions -  °F | °C
As of 7:55 PM on Friday 21 Nov 2014 (Local Time) from EHDL Reporting Station
Haze Haze  
Wind Chill: 36°   Ceiling: 14000
Heat Index: 41°   Visibility: 5mi
Dew Point: 37°   Wind: 7mph
Humidity: 87%   Direction: 90°E
Pressure: 30.12"   Gusts: NA
Location:  52.03°N, 5.35°E
Report Text: EHDL 211855Z AUTO 09006KT 8000 BR OVC140 05/03 Q1020 BLU
Loading
Personal Weather Stations






























Interactive Weather Map New forecast layout! Learn more

10-Day Weather Forecast

Advertisements
Track Severe Weather on mobile